sensor_id;sensor_type;location;lat;lon;timestamp;pressure;altitude;pressure_sealevel;temperature;humidity
78094;BME280;67327;37.152;-76.406;2023-03-24T00:00:46;101279.84;;;36.32;14.88
78094;BME280;67327;37.152;-76.406;2023-03-24T00:03:10;101274.56;;;36.33;14.87
78094;BME280;67327;37.152;-76.406;2023-03-24T00:05:36;101269.23;;;36.35;14.88
78094;BME280;67327;37.152;-76.406;2023-03-24T00:08:01;101269.45;;;36.38;14.84
78094;BME280;67327;37.152;-76.406;2023-03-24T00:10:26;101270.75;;;36.36;14.86
78094;BME280;67327;37.152;-76.406;2023-03-24T00:12:51;101265.29;;;36.28;14.89
78094;BME280;67327;37.152;-76.406;2023-03-24T00:15:19;101267.99;;;36.26;14.87
78094;BME280;67327;37.152;-76.406;2023-03-24T00:17:41;101267.33;;;36.33;14.87
78094;BME280;67327;37.152;-76.406;2023-03-24T00:20:09;101269.24;;;36.39;14.84
78094;BME280;67327;37.152;-76.406;2023-03-24T00:22:31;101268.61;;;36.43;14.79
78094;BME280;67327;37.152;-76.406;2023-03-24T00:24:57;101268.43;;;36.20;14.77
78094;BME280;67327;37.152;-76.406;2023-03-24T00:27:22;101265.75;;;36.43;14.76
78094;BME280;67327;37.152;-76.406;2023-03-24T00:29:47;101268.40;;;36.38;14.77
78094;BME280;67327;37.152;-76.406;2023-03-24T00:32:12;101263.34;;;36.81;14.77
78094;BME280;67327;37.152;-76.406;2023-03-24T00:34:37;101267.20;;;36.28;14.76
78094;BME280;67327;37.152;-76.406;2023-03-24T00:37:03;101265.16;;;36.48;14.78
78094;BME280;67327;37.152;-76.406;2023-03-24T00:39:27;101267.60;;;36.22;14.79
78094;BME280;67327;37.152;-76.406;2023-03-24T00:41:52;101269.89;;;36.20;14.80
78094;BME280;67327;37.152;-76.406;2023-03-24T00:44:18;101272.09;;;36.18;14.80
78094;BME280;67327;37.152;-76.406;2023-03-24T00:46:43;101273.71;;;36.16;14.82
78094;BME280;67327;37.152;-76.406;2023-03-24T00:49:08;101272.43;;;36.36;14.83
78094;BME280;67327;37.152;-76.406;2023-03-24T00:51:35;101274.22;;;36.07;14.83
78094;BME280;67327;37.152;-76.406;2023-03-24T00:53:58;101272.00;;;36.03;14.84
78094;BME280;67327;37.152;-76.406;2023-03-24T00:56:25;101275.14;;;35.98;14.83
78094;BME280;67327;37.152;-76.406;2023-03-24T00:58:48;101280.78;;;35.91;14.84
78094;BME280;67327;37.152;-76.406;2023-03-24T01:01:13;101285.31;;;36.32;14.85
78094;BME280;67327;37.152;-76.406;2023-03-24T01:03:39;101288.79;;;35.74;14.87
78094;BME280;67327;37.152;-76.406;2023-03-24T01:06:04;101289.15;;;36.11;14.90
78094;BME280;67327;37.152;-76.406;2023-03-24T01:08:29;101287.59;;;36.08;14.91
78094;BME280;67327;37.152;-76.406;2023-03-24T01:10:54;101293.26;;;36.03;14.93
78094;BME280;67327;37.152;-76.406;2023-03-24T01:13:21;101295.37;;;35.99;14.95
78094;BME280;67327;37.152;-76.406;2023-03-24T01:15:44;101295.66;;;35.71;14.97
78094;BME280;67327;37.152;-76.406;2023-03-24T01:18:11;101302.21;;;35.94;14.96
78094;BME280;67327;37.152;-76.406;2023-03-24T01:20:35;101304.14;;;35.95;14.97
78094;BME280;67327;37.152;-76.406;2023-03-24T01:23:01;101306.13;;;35.97;14.96
78094;BME280;67327;37.152;-76.406;2023-03-24T01:25:25;101304.53;;;35.97;14.95
78094;BME280;67327;37.152;-76.406;2023-03-24T01:27:51;101301.48;;;35.71;14.94
78094;BME280;67327;37.152;-76.406;2023-03-24T01:30:18;101313.66;;;35.68;14.94
78094;BME280;67327;37.152;-76.406;2023-03-24T01:32:40;101322.09;;;35.43;14.93
78094;BME280;67327;37.152;-76.406;2023-03-24T01:35:05;101328.20;;;35.42;14.90
78094;BME280;67327;37.152;-76.406;2023-03-24T01:37:31;101331.46;;;35.66;14.89
78094;BME280;67327;37.152;-76.406;2023-03-24T01:39:55;101338.55;;;35.91;14.91
78094;BME280;67327;37.152;-76.406;2023-03-24T01:42:23;101337.64;;;35.69;14.91
78094;BME280;67327;37.152;-76.406;2023-03-24T01:44:48;101341.46;;;35.72;14.88
78094;BME280;67327;37.152;-76.406;2023-03-24T01:47:11;101348.99;;;35.75;14.88
78094;BME280;67327;37.152;-76.406;2023-03-24T01:49:39;101350.09;;;35.77;14.86
78094;BME280;67327;37.152;-76.406;2023-03-24T01:52:03;101356.73;;;35.77;14.87
78094;BME280;67327;37.152;-76.406;2023-03-24T01:54:31;101356.56;;;35.82;14.83
78094;BME280;67327;37.152;-76.406;2023-03-24T01:56:54;101353.88;;;36.10;14.80
78094;BME280;67327;37.152;-76.406;2023-03-24T01:59:19;101354.11;;;35.64;14.78
78094;BME280;67327;37.152;-76.406;2023-03-24T02:01:42;101355.97;;;36.12;14.75
78094;BME280;67327;37.152;-76.406;2023-03-24T02:04:07;101351.57;;;35.85;14.76
78094;BME280;67327;37.152;-76.406;2023-03-24T02:06:35;101353.09;;;36.07;14.73
78094;BME280;67327;37.152;-76.406;2023-03-24T02:08:58;101362.22;;;35.82;14.76
78094;BME280;67327;37.152;-76.406;2023-03-24T02:11:24;101361.42;;;36.05;14.78
78094;BME280;67327;37.152;-76.406;2023-03-24T02:13:47;101364.70;;;35.58;14.76
78094;BME280;67327;37.152;-76.406;2023-03-24T02:16:20;101360.69;;;35.57;14.77
78094;BME280;67327;37.152;-76.406;2023-03-24T02:18:47;101363.47;;;35.83;14.76
78094;BME280;67327;37.152;-76.406;2023-03-24T02:21:18;101364.77;;;35.65;14.75
78094;BME280;67327;37.152;-76.406;2023-03-24T02:28:28;101363.30;;;35.72;14.67
78094;BME280;67327;37.152;-76.406;2023-03-24T02:36:02;101356.35;;;35.72;14.63
78094;BME280;67327;37.152;-76.406;2023-03-24T02:38:10;101346.77;;;35.93;14.63
78094;BME280;67327;37.152;-76.406;2023-03-24T02:40:31;101345.74;;;35.68;14.65
78094;BME280;67327;37.152;-76.406;2023-03-24T02:42:59;101348.19;;;35.69;14.65
78094;BME280;67327;37.152;-76.406;2023-03-24T02:45:22;101348.03;;;35.67;14.66
78094;BME280;67327;37.152;-76.406;2023-03-24T02:47:45;101350.10;;;35.65;14.69
78094;BME280;67327;37.152;-76.406;2023-03-24T02:50:10;101352.11;;;36.17;14.67
78094;BME280;67327;37.152;-76.406;2023-03-24T02:52:34;101346.64;;;35.74;14.65
78094;BME280;67327;37.152;-76.406;2023-03-24T02:54:57;101345.81;;;36.02;14.64
78094;BME280;67327;37.152;-76.406;2023-03-24T02:57:22;101344.29;;;35.81;14.62
78094;BME280;67327;37.152;-76.406;2023-03-24T02:59:49;101345.06;;;35.83;14.60
78094;BME280;67327;37.152;-76.406;2023-03-24T03:02:14;101341.74;;;35.81;14.61
78094;BME280;67327;37.152;-76.406;2023-03-24T03:04:39;101339.72;;;36.30;14.58
78094;BME280;67327;37.152;-76.406;2023-03-24T03:07:02;101338.27;;;35.76;14.60
78094;BME280;67327;37.152;-76.406;2023-03-24T03:09:27;101340.14;;;35.70;14.59
78094;BME280;67327;37.152;-76.406;2023-03-24T03:11:53;101335.01;;;36.11;14.62
78094;BME280;67327;37.152;-76.406;2023-03-24T03:14:18;101342.55;;;35.60;14.63
78094;BME280;67327;37.152;-76.406;2023-03-24T03:16:43;101337.53;;;35.80;14.65
78094;BME280;67327;37.152;-76.406;2023-03-24T03:19:11;101336.97;;;35.54;14.67
78094;BME280;67327;37.152;-76.406;2023-03-24T03:21:37;101325.16;;;35.78;14.67
78094;BME280;67327;37.152;-76.406;2023-03-24T03:24:01;101313.89;;;36.04;14.65
78094;BME280;67327;37.152;-76.406;2023-03-24T03:26:22;101314.66;;;35.58;14.65
78094;BME280;67327;37.152;-76.406;2023-03-24T03:28:50;101314.30;;;35.83;14.65
78094;BME280;67327;37.152;-76.406;2023-03-24T03:31:15;101312.24;;;35.83;14.64
78094;BME280;67327;37.152;-76.406;2023-03-24T03:33:39;101313.20;;;35.59;14.66
78094;BME280;67327;37.152;-76.406;2023-03-24T03:36:06;101301.64;;;35.64;14.63
78094;BME280;67327;37.152;-76.406;2023-03-24T03:38:33;101285.62;;;35.91;14.61
78094;BME280;67327;37.152;-76.406;2023-03-24T03:40:54;101277.94;;;35.68;14.60
78094;BME280;67327;37.152;-76.406;2023-03-24T03:43:17;101281.64;;;35.70;14.57
78094;BME280;67327;37.152;-76.406;2023-03-24T03:45:42;101280.46;;;35.90;14.58
78094;BME280;67327;37.152;-76.406;2023-03-24T03:48:07;101278.10;;;35.63;14.56
78094;BME280;67327;37.152;-76.406;2023-03-24T03:50:32;101273.93;;;35.59;14.57
78094;BME280;67327;37.152;-76.406;2023-03-24T03:52:57;101276.42;;;35.59;14.58
78094;BME280;67327;37.152;-76.406;2023-03-24T03:55:22;101270.47;;;35.56;14.59
78094;BME280;67327;37.152;-76.406;2023-03-24T03:57:47;101273.00;;;35.80;14.61
78094;BME280;67327;37.152;-76.406;2023-03-24T04:00:16;101275.22;;;35.82;14.59
78094;BME280;67327;37.152;-76.406;2023-03-24T04:02:46;101283.27;;;35.86;14.56
78094;BME280;67327;37.152;-76.406;2023-03-24T04:05:17;101279.01;;;35.66;14.56
78094;BME280;67327;37.152;-76.406;2023-03-24T04:07:35;101277.59;;;35.88;14.58
78094;BME280;67327;37.152;-76.406;2023-03-24T04:10:01;101271.68;;;36.10;14.60
78094;BME280;67327;37.152;-76.406;2023-03-24T04:12:27;101274.90;;;35.84;14.61
78094;BME280;67327;37.152;-76.406;2023-03-24T04:14:52;101269.52;;;35.83;14.58
78094;BME280;67327;37.152;-76.406;2023-03-24T04:17:14;101273.09;;;36.10;14.60
78094;BME280;67327;37.152;-76.406;2023-03-24T04:19:43;101277.15;;;35.63;14.59
78094;BME280;67327;37.152;-76.406;2023-03-24T04:22:07;101287.92;;;35.65;14.59
78094;BME280;67327;37.152;-76.406;2023-03-24T04:24:33;101291.23;;;35.65;14.59
78094;BME280;67327;37.152;-76.406;2023-03-24T04:26:54;101289.18;;;35.87;14.56
78094;BME280;67327;37.152;-76.406;2023-03-24T04:29:17;101285.74;;;35.60;14.58
78094;BME280;67327;37.152;-76.406;2023-03-24T04:31:43;101288.68;;;35.58;14.55
78094;BME280;67327;37.152;-76.406;2023-03-24T04:34:10;101284.45;;;35.81;14.56
78094;BME280;67327;37.152;-76.406;2023-03-24T04:36:32;101279.49;;;35.81;14.54
78094;BME280;67327;37.152;-76.406;2023-03-24T04:38:56;101274.59;;;35.91;14.48
78094;BME280;67327;37.152;-76.406;2023-03-24T04:41:20;101269.98;;;35.94;14.48
78094;BME280;67327;37.152;-76.406;2023-03-24T04:43:45;101275.79;;;35.68;14.49
78094;BME280;67327;37.152;-76.406;2023-03-24T04:46:10;101282.53;;;36.16;14.48
78094;BME280;67327;37.152;-76.406;2023-03-24T04:48:35;101287.24;;;35.68;14.49
78094;BME280;67327;37.152;-76.406;2023-03-24T04:51:03;101292.98;;;35.93;14.51
78094;BME280;67327;37.152;-76.406;2023-03-24T04:53:26;101294.03;;;35.73;14.49
78094;BME280;67327;37.152;-76.406;2023-03-24T04:55:57;101302.53;;;35.75;14.50
78094;BME280;67327;37.152;-76.406;2023-03-24T04:58:16;101299.36;;;35.72;14.52
78094;BME280;67327;37.152;-76.406;2023-03-24T05:00:41;101296.05;;;35.95;14.53
78094;BME280;67327;37.152;-76.406;2023-03-24T05:03:06;101303.37;;;35.73;14.52
78094;BME280;67327;37.152;-76.406;2023-03-24T05:05:31;101304.63;;;35.71;14.51
78094;BME280;67327;37.152;-76.406;2023-03-24T05:07:56;101307.12;;;35.70;14.51
78094;BME280;67327;37.152;-76.406;2023-03-24T05:10:21;101310.98;;;35.66;14.48
78094;BME280;67327;37.152;-76.406;2023-03-24T05:12:46;101310.26;;;35.83;14.50
78094;BME280;67327;37.152;-76.406;2023-03-24T05:15:12;101309.41;;;35.98;14.53
78094;BME280;67327;37.152;-76.406;2023-03-24T05:17:36;101312.48;;;35.67;14.57
78094;BME280;67327;37.152;-76.406;2023-03-24T05:20:02;101314.99;;;35.85;14.59
78094;BME280;67327;37.152;-76.406;2023-03-24T05:22:27;101313.84;;;35.38;14.59
78094;BME280;67327;37.152;-76.406;2023-03-24T05:24:52;101312.04;;;35.37;14.61
78094;BME280;67327;37.152;-76.406;2023-03-24T05:27:17;101315.57;;;35.33;14.63
78094;BME280;67327;37.152;-76.406;2023-03-24T05:29:42;101312.89;;;35.57;14.63
78094;BME280;67327;37.152;-76.406;2023-03-24T05:32:07;101315.30;;;35.80;14.65
78094;BME280;67327;37.152;-76.406;2023-03-24T05:34:32;101314.50;;;35.80;14.68
78094;BME280;67327;37.152;-76.406;2023-03-24T05:36:57;101310.98;;;35.81;14.68
78094;BME280;67327;37.152;-76.406;2023-03-24T05:39:22;101315.00;;;35.80;14.68
78094;BME280;67327;37.152;-76.406;2023-03-24T05:41:48;101307.62;;;35.62;14.68
78094;BME280;67327;37.152;-76.406;2023-03-24T05:44:13;101313.97;;;35.46;14.63
78094;BME280;67327;37.152;-76.406;2023-03-24T05:46:38;101311.90;;;35.53;14.59
78094;BME280;67327;37.152;-76.406;2023-03-24T05:49:03;101311.36;;;35.60;14.58
78094;BME280;67327;37.152;-76.406;2023-03-24T05:51:28;101319.12;;;35.59;14.58
78094;BME280;67327;37.152;-76.406;2023-03-24T05:53:53;101311.25;;;35.82;14.58
78094;BME280;67327;37.152;-76.406;2023-03-24T05:56:18;101310.17;;;35.82;14.59
78094;BME280;67327;37.152;-76.406;2023-03-24T05:58:44;101311.79;;;36.07;14.56
78094;BME280;67327;37.152;-76.406;2023-03-24T06:01:10;101310.78;;;35.80;14.54
78094;BME280;67327;37.152;-76.406;2023-03-24T06:03:34;101309.14;;;35.54;14.54
78094;BME280;67327;37.152;-76.406;2023-03-24T06:05:59;101312.81;;;35.53;14.50
78094;BME280;67327;37.152;-76.406;2023-03-24T06:08:24;101312.69;;;35.76;14.51
78094;BME280;67327;37.152;-76.406;2023-03-24T06:10:49;101314.17;;;35.51;14.50
78094;BME280;67327;37.152;-76.406;2023-03-24T06:13:14;101310.15;;;35.73;14.52
78094;BME280;67327;37.152;-76.406;2023-03-24T06:15:39;101308.09;;;35.49;14.53
78094;BME280;67327;37.152;-76.406;2023-03-24T06:18:04;101307.81;;;35.49;14.54
78094;BME280;67327;37.152;-76.406;2023-03-24T06:20:29;101307.24;;;35.48;14.55
78094;BME280;67327;37.152;-76.406;2023-03-24T06:22:55;101309.87;;;35.72;14.58
78094;BME280;67327;37.152;-76.406;2023-03-24T06:25:20;101313.72;;;35.70;14.58
78094;BME280;67327;37.152;-76.406;2023-03-24T06:27:45;101311.65;;;35.45;14.62
78094;BME280;67327;37.152;-76.406;2023-03-24T06:30:11;101316.97;;;35.72;14.63
78094;BME280;67327;37.152;-76.406;2023-03-24T06:32:35;101309.34;;;35.54;14.61
78094;BME280;67327;37.152;-76.406;2023-03-24T06:35:00;101309.08;;;36.04;14.61
78094;BME280;67327;37.152;-76.406;2023-03-24T06:37:25;101307.28;;;35.59;14.60
78094;BME280;67327;37.152;-76.406;2023-03-24T06:39:51;101303.24;;;35.59;14.60
78094;BME280;67327;37.152;-76.406;2023-03-24T06:42:16;101303.41;;;35.61;14.59
78094;BME280;67327;37.152;-76.406;2023-03-24T06:44:41;101300.97;;;35.62;14.55
78094;BME280;67327;37.152;-76.406;2023-03-24T06:47:06;101295.48;;;35.82;14.54
78094;BME280;67327;37.152;-76.406;2023-03-24T06:49:31;101293.32;;;36.01;14.54
78094;BME280;67327;37.152;-76.406;2023-03-24T06:51:56;101288.15;;;35.50;14.50
78094;BME280;67327;37.152;-76.406;2023-03-24T06:54:21;101283.54;;;35.70;14.50
78094;BME280;67327;37.152;-76.406;2023-03-24T06:56:47;101282.40;;;35.39;14.54
78094;BME280;67327;37.152;-76.406;2023-03-24T06:59:12;101286.36;;;35.83;14.56
78094;BME280;67327;37.152;-76.406;2023-03-24T07:01:37;101280.19;;;35.55;14.59
78094;BME280;67327;37.152;-76.406;2023-03-24T07:04:02;101276.57;;;35.56;14.60
78094;BME280;67327;37.152;-76.406;2023-03-24T07:06:27;101268.82;;;35.81;14.61
78094;BME280;67327;37.152;-76.406;2023-03-24T07:08:52;101271.74;;;35.74;14.65
78094;BME280;67327;37.152;-76.406;2023-03-24T07:11:17;101271.17;;;35.44;14.69
78094;BME280;67327;37.152;-76.406;2023-03-24T07:13:42;101273.56;;;35.15;14.70
78094;BME280;67327;37.152;-76.406;2023-03-24T07:16:08;101274.76;;;35.39;14.71
78094;BME280;67327;37.152;-76.406;2023-03-24T07:18:33;101276.83;;;35.36;14.72
78094;BME280;67327;37.152;-76.406;2023-03-24T07:20:58;101284.01;;;35.56;14.75
78094;BME280;67327;37.152;-76.406;2023-03-24T07:23:23;101284.56;;;35.51;14.78
78094;BME280;67327;37.152;-76.406;2023-03-24T07:25:48;101281.77;;;35.49;14.79
78094;BME280;67327;37.152;-76.406;2023-03-24T07:28:13;101278.42;;;35.48;14.82
78094;BME280;67327;37.152;-76.406;2023-03-24T07:30:38;101277.29;;;35.23;14.81
78094;BME280;67327;37.152;-76.406;2023-03-24T07:33:06;101271.99;;;35.45;14.82
78094;BME280;67327;37.152;-76.406;2023-03-24T07:35:29;101274.47;;;35.45;14.78
78094;BME280;67327;37.152;-76.406;2023-03-24T07:37:57;101273.04;;;35.45;14.75
78094;BME280;67327;37.152;-76.406;2023-03-24T07:40:19;101273.82;;;35.40;14.77
78094;BME280;67327;37.152;-76.406;2023-03-24T07:42:44;101274.65;;;35.33;14.76
78094;BME280;67327;37.152;-76.406;2023-03-24T07:45:11;101268.27;;;35.26;14.80
78094;BME280;67327;37.152;-76.406;2023-03-24T07:47:34;101262.73;;;35.21;14.84
78094;BME280;67327;37.152;-76.406;2023-03-24T07:49:59;101245.32;;;35.22;14.87
78094;BME280;67327;37.152;-76.406;2023-03-24T07:52:24;101239.47;;;35.24;14.87
78094;BME280;67327;37.152;-76.406;2023-03-24T07:54:49;101237.15;;;35.27;14.85
78094;BME280;67327;37.152;-76.406;2023-03-24T07:57:15;101241.86;;;35.27;14.87
78094;BME280;67327;37.152;-76.406;2023-03-24T07:59:40;101236.90;;;35.27;14.88
78094;BME280;67327;37.152;-76.406;2023-03-24T08:02:07;101243.27;;;35.31;14.88
78094;BME280;67327;37.152;-76.406;2023-03-24T08:04:30;101235.23;;;35.31;14.88
78094;BME280;67327;37.152;-76.406;2023-03-24T08:06:55;101231.47;;;35.31;14.88
78094;BME280;67327;37.152;-76.406;2023-03-24T08:09:20;101228.96;;;35.32;14.87
78094;BME280;67327;37.152;-76.406;2023-03-24T08:11:46;101228.35;;;35.10;14.88
78094;BME280;67327;37.152;-76.406;2023-03-24T08:14:11;101221.12;;;35.09;14.87
78094;BME280;67327;37.152;-76.406;2023-03-24T08:16:36;101219.96;;;35.57;14.89
78094;BME280;67327;37.152;-76.406;2023-03-24T08:19:01;101216.71;;;35.32;14.90
78094;BME280;67327;37.152;-76.406;2023-03-24T08:21:26;101215.76;;;34.83;14.89
78094;BME280;67327;37.152;-76.406;2023-03-24T08:23:51;101218.59;;;35.32;14.89
78094;BME280;67327;37.152;-76.406;2023-03-24T08:26:17;101223.31;;;35.58;14.89
78094;BME280;67327;37.152;-76.406;2023-03-24T08:28:41;101225.55;;;35.09;14.90
78094;BME280;67327;37.152;-76.406;2023-03-24T08:31:07;101225.44;;;35.34;14.90
78094;BME280;67327;37.152;-76.406;2023-03-24T08:33:32;101224.63;;;35.36;14.89
78094;BME280;67327;37.152;-76.406;2023-03-24T08:35:57;101224.68;;;35.37;14.88
78094;BME280;67327;37.152;-76.406;2023-03-24T08:38:23;101225.98;;;35.37;14.86
78094;BME280;67327;37.152;-76.406;2023-03-24T08:40:47;101224.27;;;35.38;14.84
78094;BME280;67327;37.152;-76.406;2023-03-24T08:43:15;101217.94;;;35.37;14.79
78094;BME280;67327;37.152;-76.406;2023-03-24T08:45:37;101215.10;;;35.34;14.78
78094;BME280;67327;37.152;-76.406;2023-03-24T08:48:05;101212.72;;;35.52;14.79
78094;BME280;67327;37.152;-76.406;2023-03-24T08:50:32;101219.02;;;35.22;14.83
78094;BME280;67327;37.152;-76.406;2023-03-24T08:52:53;101218.72;;;35.22;14.84
78094;BME280;67327;37.152;-76.406;2023-03-24T08:55:19;101220.34;;;34.98;14.83
78094;BME280;67327;37.152;-76.406;2023-03-24T08:57:43;101218.93;;;35.19;14.86
78094;BME280;67327;37.152;-76.406;2023-03-24T09:00:10;101215.84;;;34.91;14.88
78094;BME280;67327;37.152;-76.406;2023-03-24T09:02:33;101217.48;;;34.90;14.88
78094;BME280;67327;37.152;-76.406;2023-03-24T09:04:58;101215.76;;;34.93;14.88
78094;BME280;67327;37.152;-76.406;2023-03-24T09:07:24;101215.91;;;35.18;14.88
78094;BME280;67327;37.152;-76.406;2023-03-24T09:09:49;101215.88;;;35.18;14.88
78094;BME280;67327;37.152;-76.406;2023-03-24T09:12:14;101214.98;;;35.17;14.88
78094;BME280;67327;37.152;-76.406;2023-03-24T09:14:39;101212.24;;;35.39;14.89
78094;BME280;67327;37.152;-76.406;2023-03-24T09:17:04;101217.76;;;35.36;14.90
78094;BME280;67327;37.152;-76.406;2023-03-24T09:19:29;101217.87;;;35.09;14.92
78094;BME280;67327;37.152;-76.406;2023-03-24T09:21:54;101214.75;;;35.09;14.91
78094;BME280;67327;37.152;-76.406;2023-03-24T09:24:19;101211.99;;;35.04;14.93
78094;BME280;67327;37.152;-76.406;2023-03-24T09:26:45;101208.87;;;35.24;14.94
78094;BME280;67327;37.152;-76.406;2023-03-24T09:29:10;101211.58;;;35.24;14.93
78094;BME280;67327;37.152;-76.406;2023-03-24T09:31:35;101213.22;;;35.22;14.93
78094;BME280;67327;37.152;-76.406;2023-03-24T09:34:00;101211.05;;;34.96;14.95
78094;BME280;67327;37.152;-76.406;2023-03-24T09:36:26;101207.17;;;35.19;14.96
78094;BME280;67327;37.152;-76.406;2023-03-24T09:38:50;101211.00;;;34.95;14.96
78094;BME280;67327;37.152;-76.406;2023-03-24T09:41:17;101214.40;;;34.97;14.95
78094;BME280;67327;37.152;-76.406;2023-03-24T09:43:43;101221.61;;;35.26;14.93
78094;BME280;67327;37.152;-76.406;2023-03-24T09:46:11;101226.94;;;35.29;14.90
78094;BME280;67327;37.152;-76.406;2023-03-24T09:48:34;101231.50;;;35.08;14.91
78094;BME280;67327;37.152;-76.406;2023-03-24T09:50:58;101227.09;;;35.10;14.88
78094;BME280;67327;37.152;-76.406;2023-03-24T09:53:29;101226.24;;;35.10;14.90
78094;BME280;67327;37.152;-76.406;2023-03-24T09:55:48;101230.37;;;35.09;14.90
78094;BME280;67327;37.152;-76.406;2023-03-24T09:58:12;101228.10;;;35.08;14.91
78094;BME280;67327;37.152;-76.406;2023-03-24T10:00:36;101226.76;;;35.06;14.92
78094;BME280;67327;37.152;-76.406;2023-03-24T10:03:11;101229.52;;;35.03;14.94
78094;BME280;67327;37.152;-76.406;2023-03-24T10:05:32;101224.59;;;35.02;14.94
78094;BME280;67327;37.152;-76.406;2023-03-24T10:07:56;101225.37;;;34.78;14.94
78094;BME280;67327;37.152;-76.406;2023-03-24T10:10:24;101228.40;;;35.02;14.93
78094;BME280;67327;37.152;-76.406;2023-03-24T10:12:46;101229.75;;;35.03;14.91
78094;BME280;67327;37.152;-76.406;2023-03-24T10:15:16;101224.38;;;35.04;14.90
78094;BME280;67327;37.152;-76.406;2023-03-24T10:17:41;101222.31;;;35.04;14.91
78094;BME280;67327;37.152;-76.406;2023-03-24T10:20:02;101217.57;;;34.81;14.89
78094;BME280;67327;37.152;-76.406;2023-03-24T10:22:28;101219.00;;;35.03;14.90
78094;BME280;67327;37.152;-76.406;2023-03-24T10:24:53;101220.22;;;35.01;14.91
78094;BME280;67327;37.152;-76.406;2023-03-24T10:27:19;101221.72;;;35.00;14.91
78094;BME280;67327;37.152;-76.406;2023-03-24T10:29:39;101223.88;;;35.24;14.91
78094;BME280;67327;37.152;-76.406;2023-03-24T10:32:08;101215.37;;;34.98;14.89
78094;BME280;67327;37.152;-76.406;2023-03-24T10:34:31;101215.50;;;34.98;14.87
78094;BME280;67327;37.152;-76.406;2023-03-24T10:36:54;101214.05;;;34.96;14.87
78094;BME280;67327;37.152;-76.406;2023-03-24T10:39:19;101211.13;;;35.18;14.83
78094;BME280;67327;37.152;-76.406;2023-03-24T10:41:44;101208.34;;;34.92;14.87
78094;BME280;67327;37.152;-76.406;2023-03-24T10:44:10;101201.74;;;34.89;14.87
78094;BME280;67327;37.152;-76.406;2023-03-24T10:46:39;101206.39;;;35.08;14.90
78094;BME280;67327;37.152;-76.406;2023-03-24T10:49:07;101208.98;;;34.82;14.90
78094;BME280;67327;37.152;-76.406;2023-03-24T10:51:27;101210.41;;;35.05;14.91
78094;BME280;67327;37.152;-76.406;2023-03-24T10:53:50;101209.93;;;35.06;14.91
78094;BME280;67327;37.152;-76.406;2023-03-24T10:56:17;101210.13;;;34.77;14.93
78094;BME280;67327;37.152;-76.406;2023-03-24T10:58:41;101210.79;;;34.75;14.93
78094;BME280;67327;37.152;-76.406;2023-03-24T11:01:09;101213.26;;;34.94;14.95
78094;BME280;67327;37.152;-76.406;2023-03-24T11:03:33;101212.80;;;34.90;14.97
78094;BME280;67327;37.152;-76.406;2023-03-24T11:05:59;101215.98;;;35.14;14.96
78094;BME280;67327;37.152;-76.406;2023-03-24T11:08:27;101214.92;;;35.15;14.96
78094;BME280;67327;37.152;-76.406;2023-03-24T11:10:46;101215.43;;;34.89;14.97
78094;BME280;67327;37.152;-76.406;2023-03-24T11:13:16;101218.88;;;34.84;14.98
78094;BME280;67327;37.152;-76.406;2023-03-24T11:15:36;101225.82;;;34.57;15.00
78094;BME280;67327;37.152;-76.406;2023-03-24T11:18:11;101227.85;;;34.56;15.01
78094;BME280;67327;37.152;-76.406;2023-03-24T11:20:30;101227.52;;;34.82;14.99
78094;BME280;67327;37.152;-76.406;2023-03-24T11:23:01;101226.87;;;34.83;14.99
78094;BME280;67327;37.152;-76.406;2023-03-24T11:25:17;101228.20;;;34.59;14.99
78094;BME280;67327;37.152;-76.406;2023-03-24T11:27:42;101230.98;;;34.80;15.01
78094;BME280;67327;37.152;-76.406;2023-03-24T11:30:12;101228.24;;;34.77;15.03
78094;BME280;67327;37.152;-76.406;2023-03-24T11:32:32;101230.48;;;34.75;15.03
78094;BME280;67327;37.152;-76.406;2023-03-24T11:35:03;101237.47;;;34.49;15.04
78094;BME280;67327;37.152;-76.406;2023-03-24T11:37:24;101236.96;;;34.49;15.05
78094;BME280;67327;37.152;-76.406;2023-03-24T11:42:15;101233.15;;;34.93;15.07
78094;BME280;67327;37.152;-76.406;2023-03-24T11:44:48;101231.87;;;34.93;15.06
78094;BME280;67327;37.152;-76.406;2023-03-24T11:47:07;101232.47;;;34.69;15.08
78094;BME280;67327;37.152;-76.406;2023-03-24T11:49:30;101232.35;;;34.92;15.09
78094;BME280;67327;37.152;-76.406;2023-03-24T11:51:54;101231.65;;;34.92;15.11
78094;BME280;67327;37.152;-76.406;2023-03-24T11:54:20;101237.58;;;34.91;15.12
78094;BME280;67327;37.152;-76.406;2023-03-24T11:56:44;101242.09;;;34.68;15.14
78094;BME280;67327;37.152;-76.406;2023-03-24T11:59:24;101237.71;;;34.68;15.14
78094;BME280;67327;37.152;-76.406;2023-03-24T12:01:37;101233.30;;;34.45;15.15
78094;BME280;67327;37.152;-76.406;2023-03-24T12:04:06;101236.45;;;34.93;15.15
78094;BME280;67327;37.152;-76.406;2023-03-24T12:06:32;101239.11;;;34.67;15.18
78094;BME280;67327;37.152;-76.406;2023-03-24T12:08:59;101242.99;;;34.67;15.19
78094;BME280;67327;37.152;-76.406;2023-03-24T12:11:18;101242.39;;;34.42;15.18
78094;BME280;67327;37.152;-76.406;2023-03-24T12:13:41;101256.00;;;34.68;15.22
78094;BME280;67327;37.152;-76.406;2023-03-24T12:16:15;101255.05;;;34.67;15.24
78094;BME280;67327;37.152;-76.406;2023-03-24T12:18:39;101255.53;;;34.68;15.23
78094;BME280;67327;37.152;-76.406;2023-03-24T12:21:00;101254.27;;;34.68;15.25
78094;BME280;67327;37.152;-76.406;2023-03-24T12:23:25;101257.60;;;34.69;15.27
78094;BME280;67327;37.152;-76.406;2023-03-24T12:25:53;101264.59;;;34.43;15.30
78094;BME280;67327;37.152;-76.406;2023-03-24T12:28:21;101260.86;;;34.45;15.30
78094;BME280;67327;37.152;-76.406;2023-03-24T12:30:40;101264.18;;;34.72;15.30